首页
METAR-TAF:

METAR-TAF

机场 :

拉奥罗拉国际机场

瓜地馬拉, 危地马拉

纬度: 14-35N, 经度: 090-31W, 海拔: 1489米

当前天气观测

该预报发布于50分钟前的12:00 UTC
风速8节,风向北转东北
温度 15°C
湿度 94%
气压 1026 hPa
能见度10公里或以上
少量云层高于1500英尺

METAR: MGGT 181200Z 03008KT 9999 FEW015 15/14 Q1026 A3030

时间: 06:50 (12:50 UTC)

预报

该预报发布于1小时和20分钟前的11:30 UTC
预报有效从18日的 12点(UTC)到 19日的 12点(UTC)
风速12节,风向
能见度10公里或以上
少量云层高于1600英尺
成为
从 18日的 15点(UTC)到 18日的 17点(UTC)
少量云层高于1800英尺
短暂存在
从 18日的 20点(UTC)到 18日的 24点(UTC)
风速14节,风向
散云层高于2000英尺
成为
从 19日的 00点(UTC)到 19日的 02点(UTC)
风速10节,风向
散云层高于1600英尺
成为
从 19日的 08点(UTC)到 19日的 10点(UTC)
多云层高于1400英尺

TAF: MGGT 181130Z 1812/1912 36012KT 9999 FEW016 TX24/1820Z TN14/1812Z BECMG 1815/1817 FEW018 TEMPO 1820/1824 36014KT SCT020 BECMG 1900/1902 36010KT SCT016 BECMG 1908/1910 BKN014

超过4000个机场的气象观测和天气预报(METAR&TAF报告)。

可查询的气象台以黄色和红色小点在地图上表示。

将鼠标移到小点上方,可查看气象台名称。

然后点击查看天气观测和预报。

如需切换地图:点击带黑十字的绿色按钮放大地图;点击带横线的绿色按钮缩小地图;或者点击绿色箭头查看邻近地区的地图。


METAR-TAF: